createdAt,value
2023-08-11T00:04:32.757Z,11.51
2023-08-11T00:09:40.573Z,11.47
2023-08-11T00:14:47.609Z,11.43
2023-08-11T00:19:54.848Z,11.44
2023-08-11T00:25:01.829Z,11.43
2023-08-11T00:30:10.628Z,11.40
2023-08-11T00:35:17.625Z,11.36
2023-08-11T00:40:25.000Z,11.31
2023-08-11T00:45:32.142Z,11.25
2023-08-11T00:50:39.631Z,11.20
2023-08-11T00:55:46.802Z,11.16
2023-08-11T01:00:55.215Z,11.12
2023-08-11T01:06:14.478Z,11.08
2023-08-11T01:11:30.908Z,11.03
2023-08-11T01:16:38.858Z,10.98
2023-08-11T01:21:47.507Z,10.93
2023-08-11T01:26:55.015Z,10.89
2023-08-11T01:32:02.079Z,10.84
2023-08-11T01:37:09.598Z,10.79
2023-08-11T01:42:17.494Z,10.75
2023-08-11T01:47:25.324Z,10.71
2023-08-11T01:52:32.773Z,10.65
2023-08-11T01:57:52.036Z,10.56
2023-08-11T02:03:04.051Z,10.47
2023-08-11T02:08:12.282Z,10.42
2023-08-11T02:13:19.941Z,10.37
2023-08-11T02:18:27.083Z,10.32
2023-08-11T02:23:34.179Z,10.27
2023-08-11T02:28:41.069Z,10.25
2023-08-11T02:33:48.807Z,10.22
2023-08-11T02:38:55.639Z,10.18
2023-08-11T02:44:03.401Z,10.15
2023-08-11T02:49:10.426Z,10.12
2023-08-11T02:54:17.324Z,10.10
2023-08-11T02:59:24.217Z,10.04
2023-08-11T03:04:31.829Z,9.97
2023-08-11T03:09:39.089Z,9.92
2023-08-11T03:14:46.136Z,9.90
2023-08-11T03:19:53.288Z,9.88
2023-08-11T03:25:01.670Z,9.86
2023-08-11T03:30:12.000Z,9.82
2023-08-11T03:35:19.870Z,9.76
2023-08-11T03:40:28.379Z,9.70
2023-08-11T03:45:37.032Z,9.64
2023-08-11T03:50:48.121Z,9.60
2023-08-11T03:55:55.624Z,9.57
2023-08-11T04:01:03.479Z,9.55
2023-08-11T04:06:10.936Z,9.55
2023-08-11T04:11:18.072Z,9.55
2023-08-11T04:16:25.552Z,9.56
2023-08-11T04:21:32.765Z,9.60
2023-08-11T04:26:39.698Z,9.66
2023-08-11T04:31:47.640Z,9.78
2023-08-11T04:36:56.625Z,9.94
2023-08-11T04:42:03.618Z,10.16
2023-08-11T04:47:11.046Z,10.42
2023-08-11T04:52:19.508Z,10.71
2023-08-11T04:57:27.052Z,11.03
2023-08-11T05:02:34.173Z,11.37
2023-08-11T05:07:41.907Z,11.68
2023-08-11T05:12:50.104Z,11.88
2023-08-11T05:17:57.981Z,12.01
2023-08-11T05:23:05.722Z,12.07
2023-08-11T05:28:12.696Z,12.11
2023-08-11T05:33:21.994Z,12.22
2023-08-11T05:38:29.019Z,12.35
2023-08-11T05:43:37.580Z,12.51
2023-08-11T05:48:49.250Z,12.74
2023-08-11T05:53:56.172Z,13.00
2023-08-11T05:59:03.066Z,13.22
2023-08-11T06:04:10.164Z,13.41
2023-08-11T06:09:17.253Z,13.60
2023-08-11T06:14:24.266Z,13.85
2023-08-11T06:19:31.471Z,14.10
2023-08-11T06:24:38.342Z,14.41
2023-08-11T06:29:45.230Z,14.69
2023-08-11T06:34:52.342Z,14.91
2023-08-11T06:39:59.570Z,15.18
2023-08-11T06:45:07.873Z,15.47
2023-08-11T06:50:14.894Z,15.71
2023-08-11T06:55:22.474Z,15.91
2023-08-11T07:00:29.501Z,16.12
2023-08-11T07:05:36.333Z,16.38
2023-08-11T07:10:43.310Z,16.76
2023-08-11T07:15:50.235Z,17.15
2023-08-11T07:20:58.512Z,17.44
2023-08-11T07:26:05.751Z,17.73
2023-08-11T07:31:12.763Z,18.03
2023-08-11T07:36:19.662Z,18.28
2023-08-11T07:41:26.770Z,18.41
2023-08-11T07:46:33.701Z,18.51
2023-08-11T07:51:42.568Z,18.69
2023-08-11T07:56:49.868Z,18.91
2023-08-11T08:01:57.209Z,19.16
2023-08-11T08:07:04.327Z,19.30
2023-08-11T08:12:11.306Z,19.47
2023-08-11T08:17:18.222Z,19.71
2023-08-11T08:22:26.034Z,19.90
2023-08-11T08:27:33.494Z,20.05
2023-08-11T08:32:41.548Z,20.14
2023-08-11T08:37:48.433Z,20.25
2023-08-11T08:42:55.684Z,20.31
2023-08-11T08:48:07.684Z,20.44
2023-08-11T08:53:14.793Z,20.56
2023-08-11T08:58:21.651Z,20.67
2023-08-11T09:03:28.912Z,20.76
2023-08-11T09:08:40.063Z,20.92
2023-08-11T09:13:48.364Z,21.02
2023-08-11T09:18:56.111Z,21.17
2023-08-11T09:24:05.763Z,21.37
2023-08-11T09:29:13.689Z,21.51
2023-08-11T09:34:21.354Z,21.65
2023-08-11T09:39:31.284Z,21.80
2023-08-11T09:44:39.463Z,21.94
2023-08-11T09:49:46.502Z,22.06
2023-08-11T09:54:56.717Z,22.18
2023-08-11T10:00:05.415Z,22.43
2023-08-11T10:05:12.958Z,22.59
2023-08-11T10:10:22.315Z,22.72
2023-08-11T10:15:32.581Z,22.78
2023-08-11T10:20:42.845Z,22.92
2023-08-11T10:25:51.360Z,23.15
2023-08-11T10:31:06.248Z,23.36
2023-08-11T10:36:17.931Z,23.55
2023-08-11T10:41:25.714Z,23.77
2023-08-11T10:46:34.340Z,23.86
2023-08-11T10:51:45.517Z,24.10
2023-08-11T10:56:55.883Z,24.46
2023-08-11T11:02:03.906Z,24.82
2023-08-11T11:07:10.933Z,24.98
2023-08-11T11:12:23.032Z,24.96
2023-08-11T11:17:31.074Z,25.13
2023-08-11T11:22:48.188Z,25.35
2023-08-11T11:28:07.440Z,25.23
2023-08-11T11:33:17.392Z,25.04
2023-08-11T11:38:33.192Z,25.23
2023-08-11T11:43:45.932Z,25.36
2023-08-11T11:48:55.167Z,25.44
2023-08-11T11:54:07.354Z,25.58
2023-08-11T11:59:15.544Z,25.66
2023-08-11T12:04:22.681Z,25.75
2023-08-11T12:09:30.715Z,26.12
2023-08-11T12:14:38.904Z,27.14
2023-08-11T12:19:47.874Z,27.49
2023-08-11T12:24:54.909Z,28.29
2023-08-11T12:30:01.954Z,28.83
2023-08-11T12:35:12.527Z,28.88
2023-08-11T12:40:20.091Z,28.83
2023-08-11T12:45:27.130Z,28.37
2023-08-11T12:50:34.143Z,28.53
2023-08-11T12:55:40.996Z,28.97
2023-08-11T13:00:47.908Z,28.94
2023-08-11T13:05:54.931Z,28.49
2023-08-11T13:11:01.930Z,28.09
2023-08-11T13:16:09.707Z,28.64
2023-08-11T13:21:18.207Z,29.37
2023-08-11T13:26:29.611Z,30.41
2023-08-11T13:31:37.242Z,30.44
2023-08-11T13:36:43.777Z,30.10
2023-08-11T13:41:51.065Z,29.95
2023-08-11T13:46:59.318Z,29.81
2023-08-11T13:52:07.701Z,29.80
2023-08-11T13:57:15.040Z,30.38
2023-08-11T14:02:22.520Z,31.04
2023-08-11T14:07:36.044Z,31.97
2023-08-11T14:12:43.663Z,31.71
2023-08-11T14:17:55.221Z,31.06
2023-08-11T14:23:04.437Z,31.96
2023-08-11T14:28:11.496Z,32.76
2023-08-11T14:33:18.576Z,33.19
2023-08-11T14:38:27.135Z,33.47
2023-08-11T14:43:34.135Z,33.74
2023-08-11T14:48:41.080Z,34.14
2023-08-11T14:53:48.061Z,34.36
2023-08-11T14:58:55.211Z,34.28
2023-08-11T15:04:02.077Z,33.69
2023-08-11T15:09:09.551Z,32.46
2023-08-11T15:14:14.855Z,32.50
2023-08-11T15:19:21.889Z,33.07
2023-08-11T15:24:28.702Z,33.58
2023-08-11T15:29:35.541Z,33.57
2023-08-11T15:34:42.364Z,33.35
2023-08-11T15:39:49.356Z,33.40
2023-08-11T15:44:56.222Z,33.33
2023-08-11T15:50:03.063Z,33.52
2023-08-11T15:55:10.669Z,33.63
2023-08-11T16:00:19.300Z,33.60
2023-08-11T16:05:26.394Z,33.72
2023-08-11T16:10:37.779Z,33.54
2023-08-11T16:15:44.801Z,32.98
2023-08-11T16:20:50.773Z,32.65
2023-08-11T16:25:58.347Z,33.08
2023-08-11T16:31:06.523Z,32.90
2023-08-11T16:36:13.708Z,32.66
2023-08-11T16:41:29.366Z,32.76
2023-08-11T16:46:36.773Z,32.92
2023-08-11T16:51:44.568Z,32.71
2023-08-11T16:56:52.495Z,32.28
2023-08-11T17:01:59.913Z,32.13
2023-08-11T17:07:07.249Z,31.87
2023-08-11T17:12:14.570Z,31.14
2023-08-11T17:17:21.966Z,30.27
2023-08-11T17:22:28.960Z,29.65
2023-08-11T17:27:35.879Z,28.92
2023-08-11T17:32:43.934Z,28.37
2023-08-11T17:37:51.009Z,27.85
2023-08-11T17:42:58.114Z,27.40
2023-08-11T17:48:05.526Z,27.05
2023-08-11T17:53:12.530Z,26.67
2023-08-11T17:58:19.488Z,26.15
2023-08-11T18:03:26.512Z,25.57
2023-08-11T18:08:33.622Z,25.01
2023-08-11T18:13:41.693Z,24.42
2023-08-11T18:18:48.651Z,23.84
2023-08-11T18:23:56.018Z,23.47
2023-08-11T18:29:12.301Z,23.00
2023-08-11T18:34:20.462Z,22.47
2023-08-11T18:39:31.653Z,22.12
2023-08-11T18:44:42.610Z,21.86
2023-08-11T18:49:52.017Z,21.59
2023-08-11T18:55:01.622Z,21.30
2023-08-11T19:00:11.213Z,21.00
2023-08-11T19:05:19.791Z,20.59
2023-08-11T19:10:29.320Z,20.11
2023-08-11T19:15:42.580Z,19.89
2023-08-11T19:20:50.741Z,19.65
2023-08-11T19:25:58.120Z,19.39
2023-08-11T19:31:18.971Z,19.16
2023-08-11T19:36:26.757Z,18.96
2023-08-11T19:41:34.314Z,18.76
2023-08-11T19:46:41.638Z,18.56
2023-08-11T19:51:50.249Z,18.36
2023-08-11T19:57:01.229Z,18.16
2023-08-11T20:02:09.183Z,17.96
2023-08-11T20:07:18.855Z,17.75
2023-08-11T20:12:27.147Z,17.58
2023-08-11T20:17:37.192Z,17.40
2023-08-11T20:22:44.967Z,17.22
2023-08-11T20:27:53.617Z,17.07
2023-08-11T20:33:02.184Z,16.95
2023-08-11T20:38:11.337Z,16.81
2023-08-11T20:43:20.114Z,16.68
2023-08-11T20:48:28.376Z,16.55
2023-08-11T20:53:36.862Z,16.40
2023-08-11T20:58:47.009Z,16.23
2023-08-11T21:03:54.591Z,16.09
2023-08-11T21:09:02.666Z,16.00
2023-08-11T21:14:15.098Z,15.89
2023-08-11T21:19:23.542Z,15.79
2023-08-11T21:24:30.834Z,15.69
2023-08-11T21:29:39.385Z,15.58
2023-08-11T21:34:47.875Z,15.48
2023-08-11T21:39:54.978Z,15.40
2023-08-11T21:45:01.888Z,15.31
2023-08-11T21:50:11.738Z,15.19
2023-08-11T21:55:21.704Z,15.09
2023-08-11T22:00:32.769Z,14.97
2023-08-11T22:05:45.769Z,14.87
2023-08-11T22:10:53.189Z,14.79
2023-08-11T22:16:00.319Z,14.70
2023-08-11T22:21:07.486Z,14.60
2023-08-11T22:26:18.277Z,14.50
2023-08-11T22:31:25.977Z,14.42
2023-08-11T22:36:32.787Z,14.36
2023-08-11T22:41:39.723Z,14.31
2023-08-11T22:46:46.599Z,14.25
2023-08-11T22:51:53.474Z,14.21
2023-08-11T22:57:00.306Z,14.14
2023-08-11T23:02:07.410Z,14.06
2023-08-11T23:07:14.930Z,13.99
2023-08-11T23:12:21.865Z,13.91
2023-08-11T23:17:33.514Z,13.82
2023-08-11T23:22:40.640Z,13.76
2023-08-11T23:27:47.819Z,13.71
2023-08-11T23:32:54.797Z,13.64
2023-08-11T23:38:01.855Z,13.56
2023-08-11T23:43:08.791Z,13.50
2023-08-11T23:48:16.969Z,13.44
2023-08-11T23:53:23.958Z,13.39
2023-08-11T23:58:30.863Z,13.32
